sensor_id;sensor_type;location;lat;lon;timestamp;temperature;humidity
21895;DHT22;11112;51.270;7.224;2023-12-07T00:01:21;6.20;99.90
21895;DHT22;11112;51.270;7.224;2023-12-07T00:04:14;6.20;99.90
21895;DHT22;11112;51.270;7.224;2023-12-07T00:07:06;6.10;99.90
21895;DHT22;11112;51.270;7.224;2023-12-07T00:09:58;6.10;99.90
21895;DHT22;11112;51.270;7.224;2023-12-07T00:12:56;6.20;99.90
21895;DHT22;11112;51.270;7.224;2023-12-07T00:15:46;6.20;99.90
21895;DHT22;11112;51.270;7.224;2023-12-07T00:18:43;6.10;99.90
21895;DHT22;11112;51.270;7.224;2023-12-07T00:21:39;6.10;99.90
21895;DHT22;11112;51.270;7.224;2023-12-07T00:24:31;6.10;99.90
21895;DHT22;11112;51.270;7.224;2023-12-07T00:27:14;6.20;99.90
21895;DHT22;11112;51.270;7.224;2023-12-07T00:29:50;6.20;99.90
21895;DHT22;11112;51.270;7.224;2023-12-07T00:32:27;6.20;99.90
21895;DHT22;11112;51.270;7.224;2023-12-07T00:35:20;6.20;99.90
21895;DHT22;11112;51.270;7.224;2023-12-07T00:38:14;6.20;99.90
21895;DHT22;11112;51.270;7.224;2023-12-07T00:41:04;6.20;99.90
21895;DHT22;11112;51.270;7.224;2023-12-07T00:44:03;6.20;99.90
21895;DHT22;11112;51.270;7.224;2023-12-07T00:46:59;6.20;99.90
21895;DHT22;11112;51.270;7.224;2023-12-07T00:49:45;6.20;99.90
21895;DHT22;11112;51.270;7.224;2023-12-07T00:52:36;6.20;99.90
21895;DHT22;11112;51.270;7.224;2023-12-07T00:55:41;6.20;99.90
21895;DHT22;11112;51.270;7.224;2023-12-07T00:58:37;6.20;99.90
21895;DHT22;11112;51.270;7.224;2023-12-07T01:01:19;6.20;99.90
21895;DHT22;11112;51.270;7.224;2023-12-07T01:04:02;6.20;99.90
21895;DHT22;11112;51.270;7.224;2023-12-07T01:06:45;6.20;99.90
21895;DHT22;11112;51.270;7.224;2023-12-07T01:09:41;6.20;99.90
21895;DHT22;11112;51.270;7.224;2023-12-07T01:12:41;6.20;99.90
21895;DHT22;11112;51.270;7.224;2023-12-07T01:15:34;6.20;99.90
21895;DHT22;11112;51.270;7.224;2023-12-07T01:18:26;6.20;99.90
21895;DHT22;11112;51.270;7.224;2023-12-07T01:21:23;6.20;99.90
21895;DHT22;11112;51.270;7.224;2023-12-07T01:24:16;6.20;99.90
21895;DHT22;11112;51.270;7.224;2023-12-07T01:27:07;6.20;99.90
21895;DHT22;11112;51.270;7.224;2023-12-07T01:30:06;6.20;99.90
21895;DHT22;11112;51.270;7.224;2023-12-07T01:33:08;6.20;99.90
21895;DHT22;11112;51.270;7.224;2023-12-07T01:36:05;6.10;99.90
21895;DHT22;11112;51.270;7.224;2023-12-07T01:39:03;6.10;99.90
21895;DHT22;11112;51.270;7.224;2023-12-07T01:41:58;6.10;99.90
21895;DHT22;11112;51.270;7.224;2023-12-07T01:44:53;6.10;99.90
21895;DHT22;11112;51.270;7.224;2023-12-07T01:47:46;6.10;99.90
21895;DHT22;11112;51.270;7.224;2023-12-07T01:50:39;6.20;99.90
21895;DHT22;11112;51.270;7.224;2023-12-07T01:53:32;6.10;99.90
21895;DHT22;11112;51.270;7.224;2023-12-07T01:56:30;6.10;99.90
21895;DHT22;11112;51.270;7.224;2023-12-07T01:59:23;6.10;99.90
21895;DHT22;11112;51.270;7.224;2023-12-07T02:02:20;6.00;99.90
21895;DHT22;11112;51.270;7.224;2023-12-07T02:05:13;6.00;99.90
21895;DHT22;11112;51.270;7.224;2023-12-07T02:08:05;6.00;99.90
21895;DHT22;11112;51.270;7.224;2023-12-07T02:10:56;6.00;99.90
21895;DHT22;11112;51.270;7.224;2023-12-07T02:13:53;5.90;99.90
21895;DHT22;11112;51.270;7.224;2023-12-07T02:16:48;5.90;99.90
21895;DHT22;11112;51.270;7.224;2023-12-07T02:20:00;5.90;99.90
21895;DHT22;11112;51.270;7.224;2023-12-07T02:23:07;5.90;99.90
21895;DHT22;11112;51.270;7.224;2023-12-07T02:26:08;5.90;99.90
21895;DHT22;11112;51.270;7.224;2023-12-07T02:29:09;5.90;99.90
21895;DHT22;11112;51.270;7.224;2023-12-07T02:32:00;5.90;99.90
21895;DHT22;11112;51.270;7.224;2023-12-07T02:34:53;5.90;99.90
21895;DHT22;11112;51.270;7.224;2023-12-07T02:37:50;5.90;99.90
21895;DHT22;11112;51.270;7.224;2023-12-07T02:40:43;5.90;99.90
21895;DHT22;11112;51.270;7.224;2023-12-07T02:43:36;5.90;99.90
21895;DHT22;11112;51.270;7.224;2023-12-07T02:46:28;5.90;99.90
21895;DHT22;11112;51.270;7.224;2023-12-07T02:49:06;5.80;99.90
21895;DHT22;11112;51.270;7.224;2023-12-07T02:51:57;5.80;99.90
21895;DHT22;11112;51.270;7.224;2023-12-07T02:54:49;5.70;99.90
21895;DHT22;11112;51.270;7.224;2023-12-07T02:57:44;5.70;99.90
21895;DHT22;11112;51.270;7.224;2023-12-07T03:00:36;5.70;99.90
21895;DHT22;11112;51.270;7.224;2023-12-07T03:03:32;5.80;99.90
21895;DHT22;11112;51.270;7.224;2023-12-07T03:06:25;5.80;99.90
21895;DHT22;11112;51.270;7.224;2023-12-07T03:09:15;5.80;99.90
21895;DHT22;11112;51.270;7.224;2023-12-07T03:12:07;5.80;99.90
21895;DHT22;11112;51.270;7.224;2023-12-07T03:14:57;5.80;99.90
21895;DHT22;11112;51.270;7.224;2023-12-07T03:17:53;5.70;99.90
21895;DHT22;11112;51.270;7.224;2023-12-07T03:20:47;5.70;99.90
21895;DHT22;11112;51.270;7.224;2023-12-07T03:23:41;5.70;99.90
21895;DHT22;11112;51.270;7.224;2023-12-07T03:26:33;5.70;99.90
21895;DHT22;11112;51.270;7.224;2023-12-07T03:29:24;5.70;99.90
21895;DHT22;11112;51.270;7.224;2023-12-07T03:32:21;5.70;99.90
21895;DHT22;11112;51.270;7.224;2023-12-07T03:35:13;5.60;99.90
21895;DHT22;11112;51.270;7.224;2023-12-07T03:38:10;5.60;99.90
21895;DHT22;11112;51.270;7.224;2023-12-07T03:41:02;5.70;99.90
21895;DHT22;11112;51.270;7.224;2023-12-07T03:43:54;5.70;99.90
21895;DHT22;11112;51.270;7.224;2023-12-07T03:46:46;5.70;99.90
21895;DHT22;11112;51.270;7.224;2023-12-07T03:49:38;5.80;99.90
21895;DHT22;11112;51.270;7.224;2023-12-07T03:52:28;5.80;99.90
21895;DHT22;11112;51.270;7.224;2023-12-07T03:55:25;5.80;99.90
21895;DHT22;11112;51.270;7.224;2023-12-07T03:58:15;5.80;99.90
21895;DHT22;11112;51.270;7.224;2023-12-07T04:01:05;5.70;99.90
21895;DHT22;11112;51.270;7.224;2023-12-07T04:03:58;5.70;99.90
21895;DHT22;11112;51.270;7.224;2023-12-07T04:06:53;5.80;99.90
21895;DHT22;11112;51.270;7.224;2023-12-07T04:09:48;5.80;99.90
21895;DHT22;11112;51.270;7.224;2023-12-07T04:12:48;5.80;99.90
21895;DHT22;11112;51.270;7.224;2023-12-07T04:15:48;5.80;99.90
21895;DHT22;11112;51.270;7.224;2023-12-07T04:18:40;5.80;99.90
21895;DHT22;11112;51.270;7.224;2023-12-07T04:21:39;5.80;99.90
21895;DHT22;11112;51.270;7.224;2023-12-07T04:24:31;5.80;99.90
21895;DHT22;11112;51.270;7.224;2023-12-07T04:27:34;5.80;99.90
21895;DHT22;11112;51.270;7.224;2023-12-07T04:30:33;5.80;99.90
21895;DHT22;11112;51.270;7.224;2023-12-07T04:33:29;5.80;99.90
21895;DHT22;11112;51.270;7.224;2023-12-07T04:36:15;5.80;99.90
21895;DHT22;11112;51.270;7.224;2023-12-07T04:39:12;5.80;99.90
21895;DHT22;11112;51.270;7.224;2023-12-07T04:42:03;5.80;99.90
21895;DHT22;11112;51.270;7.224;2023-12-07T04:45:07;5.80;99.90
21895;DHT22;11112;51.270;7.224;2023-12-07T04:48:02;5.70;99.90
21895;DHT22;11112;51.270;7.224;2023-12-07T04:50:52;5.70;99.90
21895;DHT22;11112;51.270;7.224;2023-12-07T04:53:44;5.70;99.90
21895;DHT22;11112;51.270;7.224;2023-12-07T04:56:35;5.70;99.90
21895;DHT22;11112;51.270;7.224;2023-12-07T04:59:24;5.80;99.90
21895;DHT22;11112;51.270;7.224;2023-12-07T05:02:21;5.80;99.90
21895;DHT22;11112;51.270;7.224;2023-12-07T05:05:21;5.80;99.90
21895;DHT22;11112;51.270;7.224;2023-12-07T05:08:18;5.80;99.90
21895;DHT22;11112;51.270;7.224;2023-12-07T05:11:13;5.80;99.90
21895;DHT22;11112;51.270;7.224;2023-12-07T05:14:21;5.80;99.90
21895;DHT22;11112;51.270;7.224;2023-12-07T05:17:17;5.80;99.90
21895;DHT22;11112;51.270;7.224;2023-12-07T05:20:05;5.80;99.90
21895;DHT22;11112;51.270;7.224;2023-12-07T05:23:05;5.90;99.90
21895;DHT22;11112;51.270;7.224;2023-12-07T05:25:52;5.90;99.90
21895;DHT22;11112;51.270;7.224;2023-12-07T05:28:29;5.90;99.90
21895;DHT22;11112;51.270;7.224;2023-12-07T05:31:20;5.90;99.90
21895;DHT22;11112;51.270;7.224;2023-12-07T05:34:18;5.80;99.90
21895;DHT22;11112;51.270;7.224;2023-12-07T05:37:15;5.90;99.90
21895;DHT22;11112;51.270;7.224;2023-12-07T05:40:14;5.80;99.90
21895;DHT22;11112;51.270;7.224;2023-12-07T05:43:06;5.90;99.90
21895;DHT22;11112;51.270;7.224;2023-12-07T05:45:58;5.90;99.90
21895;DHT22;11112;51.270;7.224;2023-12-07T05:48:51;5.90;99.90
21895;DHT22;11112;51.270;7.224;2023-12-07T05:51:48;5.90;99.90
21895;DHT22;11112;51.270;7.224;2023-12-07T05:54:40;5.90;99.90
21895;DHT22;11112;51.270;7.224;2023-12-07T05:57:25;5.90;99.90
21895;DHT22;11112;51.270;7.224;2023-12-07T06:00:06;5.90;99.90
21895;DHT22;11112;51.270;7.224;2023-12-07T06:03:06;5.90;99.90
21895;DHT22;11112;51.270;7.224;2023-12-07T06:06:10;5.90;99.90
21895;DHT22;11112;51.270;7.224;2023-12-07T06:09:07;5.90;99.90
21895;DHT22;11112;51.270;7.224;2023-12-07T06:12:00;5.90;99.90
21895;DHT22;11112;51.270;7.224;2023-12-07T06:14:52;5.80;99.90
21895;DHT22;11112;51.270;7.224;2023-12-07T06:17:45;5.80;99.90
21895;DHT22;11112;51.270;7.224;2023-12-07T06:20:36;5.80;99.90
21895;DHT22;11112;51.270;7.224;2023-12-07T06:23:28;5.80;99.90
21895;DHT22;11112;51.270;7.224;2023-12-07T06:26:34;5.70;99.90
21895;DHT22;11112;51.270;7.224;2023-12-07T06:29:34;5.80;99.90
21895;DHT22;11112;51.270;7.224;2023-12-07T06:32:24;5.80;99.90
21895;DHT22;11112;51.270;7.224;2023-12-07T06:35:22;5.80;99.90
21895;DHT22;11112;51.270;7.224;2023-12-07T06:38:15;5.70;99.90
21895;DHT22;11112;51.270;7.224;2023-12-07T06:41:13;5.70;99.90
21895;DHT22;11112;51.270;7.224;2023-12-07T06:44:18;5.70;99.90
21895;DHT22;11112;51.270;7.224;2023-12-07T06:47:16;5.60;99.90
21895;DHT22;11112;51.270;7.224;2023-12-07T06:50:09;5.60;99.90
21895;DHT22;11112;51.270;7.224;2023-12-07T06:53:03;5.60;99.90
21895;DHT22;11112;51.270;7.224;2023-12-07T06:55:42;5.60;99.90
21895;DHT22;11112;51.270;7.224;2023-12-07T06:58:38;5.60;99.90
21895;DHT22;11112;51.270;7.224;2023-12-07T07:01:31;5.60;99.90
21895;DHT22;11112;51.270;7.224;2023-12-07T07:04:23;5.60;99.90
21895;DHT22;11112;51.270;7.224;2023-12-07T07:07:15;5.60;99.90
21895;DHT22;11112;51.270;7.224;2023-12-07T07:10:17;5.50;99.90
21895;DHT22;11112;51.270;7.224;2023-12-07T07:13:12;5.40;99.90
21895;DHT22;11112;51.270;7.224;2023-12-07T07:16:05;5.50;99.90
21895;DHT22;11112;51.270;7.224;2023-12-07T07:18:57;5.40;99.90
21895;DHT22;11112;51.270;7.224;2023-12-07T07:21:35;5.40;99.90
21895;DHT22;11112;51.270;7.224;2023-12-07T07:24:29;5.50;99.90
21895;DHT22;11112;51.270;7.224;2023-12-07T07:27:23;5.40;99.90
21895;DHT22;11112;51.270;7.224;2023-12-07T07:30:02;5.40;99.90
21895;DHT22;11112;51.270;7.224;2023-12-07T07:33:01;5.30;99.90
21895;DHT22;11112;51.270;7.224;2023-12-07T07:35:50;5.30;99.90
21895;DHT22;11112;51.270;7.224;2023-12-07T07:38:45;5.30;99.90
21895;DHT22;11112;51.270;7.224;2023-12-07T07:41:38;5.30;99.90
21895;DHT22;11112;51.270;7.224;2023-12-07T07:44:21;5.30;99.90
21895;DHT22;11112;51.270;7.224;2023-12-07T07:47:09;5.20;99.90
21895;DHT22;11112;51.270;7.224;2023-12-07T07:50:05;5.20;99.90
21895;DHT22;11112;51.270;7.224;2023-12-07T07:52:56;5.20;99.90
21895;DHT22;11112;51.270;7.224;2023-12-07T07:55:55;5.20;99.90
21895;DHT22;11112;51.270;7.224;2023-12-07T07:58:47;5.20;99.90
21895;DHT22;11112;51.270;7.224;2023-12-07T08:01:38;5.20;99.90
21895;DHT22;11112;51.270;7.224;2023-12-07T08:04:36;5.20;99.90
21895;DHT22;11112;51.270;7.224;2023-12-07T08:07:45;5.10;99.90
21895;DHT22;11112;51.270;7.224;2023-12-07T08:10:37;5.10;99.90
21895;DHT22;11112;51.270;7.224;2023-12-07T08:13:05;5.10;99.90
21895;DHT22;11112;51.270;7.224;2023-12-07T08:15:47;5.10;99.90
21895;DHT22;11112;51.270;7.224;2023-12-07T08:18:47;5.20;99.90
21895;DHT22;11112;51.270;7.224;2023-12-07T08:21:38;5.20;99.90
21895;DHT22;11112;51.270;7.224;2023-12-07T08:24:34;5.20;99.90
21895;DHT22;11112;51.270;7.224;2023-12-07T08:27:18;5.30;99.90
21895;DHT22;11112;51.270;7.224;2023-12-07T08:29:55;5.30;99.90
21895;DHT22;11112;51.270;7.224;2023-12-07T08:32:46;5.40;99.90
21895;DHT22;11112;51.270;7.224;2023-12-07T08:35:38;5.40;99.90
21895;DHT22;11112;51.270;7.224;2023-12-07T08:38:32;5.50;99.90
21895;DHT22;11112;51.270;7.224;2023-12-07T08:41:20;5.50;99.90
21895;DHT22;11112;51.270;7.224;2023-12-07T08:44:11;5.50;99.90
21895;DHT22;11112;51.270;7.224;2023-12-07T08:47:13;5.50;99.90
21895;DHT22;11112;51.270;7.224;2023-12-07T08:50:07;5.60;99.90
21895;DHT22;11112;51.270;7.224;2023-12-07T08:52:59;5.60;99.90
21895;DHT22;11112;51.270;7.224;2023-12-07T08:55:51;5.60;99.90
21895;DHT22;11112;51.270;7.224;2023-12-07T08:58:46;5.70;99.90
21895;DHT22;11112;51.270;7.224;2023-12-07T09:01:37;5.70;99.90
21895;DHT22;11112;51.270;7.224;2023-12-07T09:04:29;5.70;99.90
21895;DHT22;11112;51.270;7.224;2023-12-07T09:07:27;5.60;99.90
21895;DHT22;11112;51.270;7.224;2023-12-07T09:10:19;5.60;99.90
21895;DHT22;11112;51.270;7.224;2023-12-07T09:13:12;5.60;99.90
21895;DHT22;11112;51.270;7.224;2023-12-07T09:16:08;5.70;99.90
21895;DHT22;11112;51.270;7.224;2023-12-07T09:19:00;5.70;99.90
21895;DHT22;11112;51.270;7.224;2023-12-07T09:22:02;5.70;99.90
21895;DHT22;11112;51.270;7.224;2023-12-07T09:24:54;5.70;99.90
21895;DHT22;11112;51.270;7.224;2023-12-07T09:27:46;5.70;99.90
21895;DHT22;11112;51.270;7.224;2023-12-07T09:30:38;5.60;99.90
21895;DHT22;11112;51.270;7.224;2023-12-07T09:33:35;5.60;99.90
21895;DHT22;11112;51.270;7.224;2023-12-07T09:36:30;5.60;99.90
21895;DHT22;11112;51.270;7.224;2023-12-07T09:39:22;5.50;99.90
21895;DHT22;11112;51.270;7.224;2023-12-07T09:42:15;5.50;99.90
21895;DHT22;11112;51.270;7.224;2023-12-07T09:45:06;5.50;99.90
21895;DHT22;11112;51.270;7.224;2023-12-07T09:47:58;5.40;99.90
21895;DHT22;11112;51.270;7.224;2023-12-07T09:50:56;5.40;99.90
21895;DHT22;11112;51.270;7.224;2023-12-07T09:53:48;5.40;99.90
21895;DHT22;11112;51.270;7.224;2023-12-07T09:56:47;5.50;99.90
21895;DHT22;11112;51.270;7.224;2023-12-07T09:59:37;5.40;99.90
21895;DHT22;11112;51.270;7.224;2023-12-07T10:02:20;5.40;99.90
21895;DHT22;11112;51.270;7.224;2023-12-07T10:05:14;5.50;99.90
21895;DHT22;11112;51.270;7.224;2023-12-07T10:08:03;5.40;99.90
21895;DHT22;11112;51.270;7.224;2023-12-07T10:11:07;5.40;99.90
21895;DHT22;11112;51.270;7.224;2023-12-07T10:14:00;5.40;99.90
21895;DHT22;11112;51.270;7.224;2023-12-07T10:17:00;5.40;99.90
21895;DHT22;11112;51.270;7.224;2023-12-07T10:19:47;5.40;99.90
21895;DHT22;11112;51.270;7.224;2023-12-07T10:23:15;5.40;99.90
21895;DHT22;11112;51.270;7.224;2023-12-07T10:26:15;5.40;99.90
21895;DHT22;11112;51.270;7.224;2023-12-07T10:29:07;5.40;99.90
21895;DHT22;11112;51.270;7.224;2023-12-07T10:32:05;5.50;99.90
21895;DHT22;11112;51.270;7.224;2023-12-07T10:35:10;5.50;99.90
21895;DHT22;11112;51.270;7.224;2023-12-07T10:38:03;5.50;99.90
21895;DHT22;11112;51.270;7.224;2023-12-07T10:41:09;5.60;99.90
21895;DHT22;11112;51.270;7.224;2023-12-07T10:44:05;5.60;99.90
21895;DHT22;11112;51.270;7.224;2023-12-07T10:46:59;5.60;99.90
21895;DHT22;11112;51.270;7.224;2023-12-07T10:49:57;5.50;99.90
21895;DHT22;11112;51.270;7.224;2023-12-07T10:52:57;5.50;99.90
21895;DHT22;11112;51.270;7.224;2023-12-07T10:56:02;5.50;99.90
21895;DHT22;11112;51.270;7.224;2023-12-07T10:58:55;5.50;99.90
21895;DHT22;11112;51.270;7.224;2023-12-07T11:01:52;5.40;99.90
21895;DHT22;11112;51.270;7.224;2023-12-07T11:04:45;5.20;99.90
21895;DHT22;11112;51.270;7.224;2023-12-07T11:07:45;5.10;99.90
21895;DHT22;11112;51.270;7.224;2023-12-07T11:10:45;5.00;99.90
21895;DHT22;11112;51.270;7.224;2023-12-07T11:13:46;5.00;99.90
21895;DHT22;11112;51.270;7.224;2023-12-07T11:16:59;5.00;99.90
21895;DHT22;11112;51.270;7.224;2023-12-07T11:19:54;5.00;99.90
21895;DHT22;11112;51.270;7.224;2023-12-07T11:22:49;4.90;99.90
21895;DHT22;11112;51.270;7.224;2023-12-07T11:25:41;5.00;99.90
21895;DHT22;11112;51.270;7.224;2023-12-07T11:28:54;5.00;99.90
21895;DHT22;11112;51.270;7.224;2023-12-07T11:31:34;5.00;99.90
21895;DHT22;11112;51.270;7.224;2023-12-07T11:34:39;5.00;99.90
21895;DHT22;11112;51.270;7.224;2023-12-07T11:40:52;5.00;99.90
21895;DHT22;11112;51.270;7.224;2023-12-07T11:43:53;5.10;99.90
21895;DHT22;11112;51.270;7.224;2023-12-07T11:46:49;5.10;99.90
21895;DHT22;11112;51.270;7.224;2023-12-07T11:49:41;5.20;99.90
21895;DHT22;11112;51.270;7.224;2023-12-07T11:52:32;5.30;99.90
21895;DHT22;11112;51.270;7.224;2023-12-07T11:55:10;5.20;99.90
21895;DHT22;11112;51.270;7.224;2023-12-07T11:58:03;5.10;99.90
21895;DHT22;11112;51.270;7.224;2023-12-07T12:01:00;5.20;99.90
21895;DHT22;11112;51.270;7.224;2023-12-07T12:03:53;5.20;99.90
21895;DHT22;11112;51.270;7.224;2023-12-07T12:06:45;5.30;99.90
21895;DHT22;11112;51.270;7.224;2023-12-07T12:09:37;5.30;99.90
21895;DHT22;11112;51.270;7.224;2023-12-07T12:12:17;5.30;99.90
21895;DHT22;11112;51.270;7.224;2023-12-07T12:14:59;5.30;99.90
21895;DHT22;11112;51.270;7.224;2023-12-07T12:17:48;5.30;99.90
21895;DHT22;11112;51.270;7.224;2023-12-07T12:20:39;5.40;99.90
21895;DHT22;11112;51.270;7.224;2023-12-07T12:23:28;5.30;99.90
21895;DHT22;11112;51.270;7.224;2023-12-07T12:26:24;5.30;99.90
21895;DHT22;11112;51.270;7.224;2023-12-07T12:29:24;5.30;99.90
21895;DHT22;11112;51.270;7.224;2023-12-07T12:32:08;5.30;99.90
21895;DHT22;11112;51.270;7.224;2023-12-07T12:35:05;5.30;99.90
21895;DHT22;11112;51.270;7.224;2023-12-07T12:37:57;5.30;99.90
21895;DHT22;11112;51.270;7.224;2023-12-07T12:40:59;5.40;99.90
21895;DHT22;11112;51.270;7.224;2023-12-07T12:43:50;5.40;99.90
21895;DHT22;11112;51.270;7.224;2023-12-07T12:46:46;5.40;99.90
21895;DHT22;11112;51.270;7.224;2023-12-07T12:49:24;5.40;99.90
21895;DHT22;11112;51.270;7.224;2023-12-07T12:52:34;5.40;99.90
21895;DHT22;11112;51.270;7.224;2023-12-07T12:55:29;5.50;99.90
21895;DHT22;11112;51.270;7.224;2023-12-07T12:58:27;5.40;99.90
21895;DHT22;11112;51.270;7.224;2023-12-07T13:01:22;5.50;99.90
21895;DHT22;11112;51.270;7.224;2023-12-07T13:04:19;5.50;99.90
21895;DHT22;11112;51.270;7.224;2023-12-07T13:07:01;5.40;99.90
21895;DHT22;11112;51.270;7.224;2023-12-07T13:09:54;5.40;99.90
21895;DHT22;11112;51.270;7.224;2023-12-07T13:12:50;5.40;99.90
21895;DHT22;11112;51.270;7.224;2023-12-07T13:15:34;5.40;99.90
21895;DHT22;11112;51.270;7.224;2023-12-07T13:18:13;5.40;99.90
21895;DHT22;11112;51.270;7.224;2023-12-07T13:21:06;5.40;99.90
21895;DHT22;11112;51.270;7.224;2023-12-07T13:23:57;5.50;99.90
21895;DHT22;11112;51.270;7.224;2023-12-07T13:26:54;5.40;99.90
21895;DHT22;11112;51.270;7.224;2023-12-07T13:29:52;5.50;99.90
21895;DHT22;11112;51.270;7.224;2023-12-07T13:32:52;5.40;99.90
21895;DHT22;11112;51.270;7.224;2023-12-07T13:35:53;5.40;99.90
21895;DHT22;11112;51.270;7.224;2023-12-07T13:38:46;5.40;99.90
21895;DHT22;11112;51.270;7.224;2023-12-07T13:41:51;5.40;99.90
21895;DHT22;11112;51.270;7.224;2023-12-07T13:44:47;5.40;99.90
21895;DHT22;11112;51.270;7.224;2023-12-07T13:47:42;5.40;99.90
21895;DHT22;11112;51.270;7.224;2023-12-07T13:50:41;5.40;99.90
21895;DHT22;11112;51.270;7.224;2023-12-07T13:53:27;5.50;99.90
21895;DHT22;11112;51.270;7.224;2023-12-07T13:56:04;5.50;99.90
21895;DHT22;11112;51.270;7.224;2023-12-07T13:59:00;5.50;99.90
21895;DHT22;11112;51.270;7.224;2023-12-07T14:01:51;5.60;99.90
21895;DHT22;11112;51.270;7.224;2023-12-07T14:04:53;5.50;99.90
21895;DHT22;11112;51.270;7.224;2023-12-07T14:07:44;5.50;99.90
21895;DHT22;11112;51.270;7.224;2023-12-07T14:10:36;5.50;99.90
21895;DHT22;11112;51.270;7.224;2023-12-07T14:13:18;5.50;99.90
21895;DHT22;11112;51.270;7.224;2023-12-07T14:16:01;5.50;99.90
21895;DHT22;11112;51.270;7.224;2023-12-07T14:18:44;5.50;99.90
21895;DHT22;11112;51.270;7.224;2023-12-07T14:21:35;5.60;99.90
21895;DHT22;11112;51.270;7.224;2023-12-07T14:24:29;5.50;99.90
21895;DHT22;11112;51.270;7.224;2023-12-07T14:27:22;5.50;99.90
21895;DHT22;11112;51.270;7.224;2023-12-07T14:30:27;5.50;99.90
21895;DHT22;11112;51.270;7.224;2023-12-07T14:33:18;5.50;99.90
21895;DHT22;11112;51.270;7.224;2023-12-07T14:36:08;5.50;99.90
21895;DHT22;11112;51.270;7.224;2023-12-07T14:39:01;5.40;99.90
21895;DHT22;11112;51.270;7.224;2023-12-07T14:41:54;5.50;99.90
21895;DHT22;11112;51.270;7.224;2023-12-07T14:44:47;5.40;99.90
21895;DHT22;11112;51.270;7.224;2023-12-07T14:47:38;5.50;99.90
21895;DHT22;11112;51.270;7.224;2023-12-07T14:50:28;5.40;99.90
21895;DHT22;11112;51.270;7.224;2023-12-07T14:53:26;5.40;99.90
21895;DHT22;11112;51.270;7.224;2023-12-07T14:56:09;5.40;99.90
21895;DHT22;11112;51.270;7.224;2023-12-07T14:58:52;5.40;99.90
21895;DHT22;11112;51.270;7.224;2023-12-07T15:01:23;5.40;99.90
21895;DHT22;11112;51.270;7.224;2023-12-07T15:03:51;5.40;99.90
21895;DHT22;11112;51.270;7.224;2023-12-07T15:06:18;5.40;99.90
21895;DHT22;11112;51.270;7.224;2023-12-07T15:08:45;5.40;99.90
21895;DHT22;11112;51.270;7.224;2023-12-07T15:11:13;5.40;99.90
21895;DHT22;11112;51.270;7.224;2023-12-07T15:13:40;5.40;99.90
21895;DHT22;11112;51.270;7.224;2023-12-07T15:16:09;5.40;99.90
21895;DHT22;11112;51.270;7.224;2023-12-07T15:18:37;5.50;99.90
21895;DHT22;11112;51.270;7.224;2023-12-07T15:21:10;5.50;99.90
21895;DHT22;11112;51.270;7.224;2023-12-07T15:23:39;5.50;99.90
21895;DHT22;11112;51.270;7.224;2023-12-07T15:26:08;5.40;99.90
21895;DHT22;11112;51.270;7.224;2023-12-07T15:28:35;5.40;99.90
21895;DHT22;11112;51.270;7.224;2023-12-07T15:31:02;5.30;99.90
21895;DHT22;11112;51.270;7.224;2023-12-07T15:33:31;5.30;99.90
21895;DHT22;11112;51.270;7.224;2023-12-07T15:35:59;5.30;99.90
21895;DHT22;11112;51.270;7.224;2023-12-07T15:38:28;5.30;99.90
21895;DHT22;11112;51.270;7.224;2023-12-07T15:40:55;5.30;99.90
21895;DHT22;11112;51.270;7.224;2023-12-07T15:43:23;5.30;99.90
21895;DHT22;11112;51.270;7.224;2023-12-07T15:45:50;5.30;99.90
21895;DHT22;11112;51.270;7.224;2023-12-07T15:48:18;5.30;99.90
21895;DHT22;11112;51.270;7.224;2023-12-07T15:50:48;5.30;99.90
21895;DHT22;11112;51.270;7.224;2023-12-07T15:53:16;5.20;99.90
21895;DHT22;11112;51.270;7.224;2023-12-07T15:55:44;5.20;99.90
21895;DHT22;11112;51.270;7.224;2023-12-07T15:58:12;5.20;99.90
21895;DHT22;11112;51.270;7.224;2023-12-07T16:00:39;5.20;99.90
21895;DHT22;11112;51.270;7.224;2023-12-07T16:03:06;5.20;99.90
21895;DHT22;11112;51.270;7.224;2023-12-07T16:05:34;5.20;99.90
21895;DHT22;11112;51.270;7.224;2023-12-07T16:08:03;5.10;99.90
21895;DHT22;11112;51.270;7.224;2023-12-07T16:10:30;5.10;99.90
21895;DHT22;11112;51.270;7.224;2023-12-07T16:12:57;5.20;99.90
21895;DHT22;11112;51.270;7.224;2023-12-07T16:15:24;5.20;99.90
21895;DHT22;11112;51.270;7.224;2023-12-07T16:17:51;5.10;99.90
21895;DHT22;11112;51.270;7.224;2023-12-07T16:20:18;5.10;99.90
21895;DHT22;11112;51.270;7.224;2023-12-07T16:22:46;5.10;99.90
21895;DHT22;11112;51.270;7.224;2023-12-07T16:25:14;5.10;99.90
21895;DHT22;11112;51.270;7.224;2023-12-07T16:27:42;5.20;99.90
21895;DHT22;11112;51.270;7.224;2023-12-07T16:30:09;5.10;99.90
21895;DHT22;11112;51.270;7.224;2023-12-07T16:32:41;5.00;99.90
21895;DHT22;11112;51.270;7.224;2023-12-07T16:35:10;5.00;99.90
21895;DHT22;11112;51.270;7.224;2023-12-07T16:37:37;5.00;99.90
21895;DHT22;11112;51.270;7.224;2023-12-07T16:40:06;4.90;99.90
21895;DHT22;11112;51.270;7.224;2023-12-07T16:42:37;4.90;99.90
21895;DHT22;11112;51.270;7.224;2023-12-07T16:45:06;4.90;99.90
21895;DHT22;11112;51.270;7.224;2023-12-07T16:47:35;4.90;99.90
21895;DHT22;11112;51.270;7.224;2023-12-07T16:50:03;4.90;99.90
21895;DHT22;11112;51.270;7.224;2023-12-07T16:52:31;4.80;99.90
21895;DHT22;11112;51.270;7.224;2023-12-07T16:54:58;4.80;99.90
21895;DHT22;11112;51.270;7.224;2023-12-07T16:57:25;4.80;99.90
21895;DHT22;11112;51.270;7.224;2023-12-07T16:59:53;4.80;99.90
21895;DHT22;11112;51.270;7.224;2023-12-07T17:02:20;4.80;99.90
21895;DHT22;11112;51.270;7.224;2023-12-07T17:04:48;4.80;99.90
21895;DHT22;11112;51.270;7.224;2023-12-07T17:07:16;4.80;99.90
21895;DHT22;11112;51.270;7.224;2023-12-07T17:09:43;4.80;99.90
21895;DHT22;11112;51.270;7.224;2023-12-07T17:12:10;4.80;99.90
21895;DHT22;11112;51.270;7.224;2023-12-07T17:14:38;4.70;99.90
21895;DHT22;11112;51.270;7.224;2023-12-07T17:17:06;4.70;99.90
21895;DHT22;11112;51.270;7.224;2023-12-07T17:19:34;4.80;99.90
21895;DHT22;11112;51.270;7.224;2023-12-07T17:22:01;4.80;99.90
21895;DHT22;11112;51.270;7.224;2023-12-07T17:24:28;4.70;99.90
21895;DHT22;11112;51.270;7.224;2023-12-07T17:26:55;4.70;99.90
21895;DHT22;11112;51.270;7.224;2023-12-07T17:29:23;4.80;99.90
21895;DHT22;11112;51.270;7.224;2023-12-07T17:31:50;4.80;99.90
21895;DHT22;11112;51.270;7.224;2023-12-07T17:34:19;4.70;99.90
21895;DHT22;11112;51.270;7.224;2023-12-07T17:36:46;4.80;99.90
21895;DHT22;11112;51.270;7.224;2023-12-07T17:39:13;4.80;99.90
21895;DHT22;11112;51.270;7.224;2023-12-07T17:41:41;4.80;99.90
21895;DHT22;11112;51.270;7.224;2023-12-07T17:44:08;4.80;99.90
21895;DHT22;11112;51.270;7.224;2023-12-07T17:46:35;4.80;99.90
21895;DHT22;11112;51.270;7.224;2023-12-07T17:49:02;4.80;99.90
21895;DHT22;11112;51.270;7.224;2023-12-07T17:51:31;4.80;99.90
21895;DHT22;11112;51.270;7.224;2023-12-07T17:53:58;4.80;99.90
21895;DHT22;11112;51.270;7.224;2023-12-07T17:56:25;4.90;99.90
21895;DHT22;11112;51.270;7.224;2023-12-07T17:58:52;4.90;99.90
21895;DHT22;11112;51.270;7.224;2023-12-07T18:01:20;4.90;99.90
21895;DHT22;11112;51.270;7.224;2023-12-07T18:03:47;4.80;99.90